Time;durP1;ratioP1;P1;durP2;ratioP2;P2;SDS_P1;SDS_P2;PMS_P1;PMS_P2;Temp;Humidity;BMP_temperature;BMP_pressure;BME280_temperature;BME280_humidity;BME280_pressure;Samples;Min_cycle;Max_cycle;Signal;HPM_P1;HPM_P2
2022/05/23 00:01:15;;;;;;;3.10;1.53;;;;;;;;;;5086469;28;20042;-76
2022/05/23 00:03:40;;;;;;;2.58;1.45;;;;;;;;;;5093307;28;20280;-76
2022/05/23 00:06:05;;;;;;;4.03;1.37;;;;;;;;;;5100602;28;20279;-74
2022/05/23 00:08:32;;;;;;;5.53;1.70;;;;;;;;;;5101528;28;20053;-75
2022/05/23 00:10:57;;;;;;;4.07;1.30;;;;;;;;;;5098978;28;20036;-75
2022/05/23 00:13:22;;;;;;;4.25;1.50;;;;;;;;;;5092116;28;20450;-76
2022/05/23 00:15:48;;;;;;;4.55;1.83;;;;;;;15.29;nan;100067.91;5090578;28;20062;-76
2022/05/23 00:18:13;;;;;;;5.50;1.60;;;;;;;15.21;nan;100063.13;5095472;28;20059;-74
2022/05/23 00:20:39;;;;;;;3.70;1.67;;;;;;;15.22;nan;100076.13;5107105;28;20040;-75
2022/05/23 00:23:04;;;;;;;5.45;1.67;;;;;;;15.14;nan;100084.59;5108581;28;20676;-76
2022/05/23 00:25:30;;;;;;;5.20;2.00;;;;;;;15.22;nan;100089.38;5108291;28;20020;-75
2022/05/23 00:27:55;;;;;;;7.18;2.00;;;;;;;15.17;nan;100086.72;5109363;28;20043;-75
2022/05/23 00:30:26;;;;;;;5.18;2.00;;;;;;;15.27;nan;100092.03;5114498;28;20039;-75
2022/05/23 00:35:38;;;;;;;4.70;2.13;;;;;;;15.12;nan;100099.19;5100611;28;20032;-76
2022/05/23 00:38:04;;;;;;;5.30;1.60;;;;;;;15.00;nan;100096.78;5091637;28;20032;-73
2022/05/23 00:40:29;;;;;;;6.03;2.00;;;;;;;14.93;nan;100094.38;5100515;28;20030;-75
2022/05/23 00:43:13;;;;;;;3.58;1.88;;;;;;;14.91;nan;100088.53;5087975;28;20127;-73
2022/05/23 00:45:39;;;;;;;6.28;1.90;;;;;;;14.93;nan;100088.28;5089161;28;20032;-75
2022/05/23 00:48:05;;;;;;;2.65;1.60;;;;;;;14.95;nan;100080.84;5086386;28;20028;-77
2022/05/23 00:50:33;;;;;;;3.60;1.60;;;;;;;15.05;nan;100096.78;5087671;28;20057;-74
2022/05/23 00:52:59;;;;;;;6.43;2.13;;;;;;;14.54;nan;100027.72;5085648;28;20649;-75
2022/05/23 00:55:41;;;;;;;6.03;1.60;;;;;;;14.72;nan;100092.69;5094063;28;20056;-76
2022/05/23 00:58:21;;;;;;;7.88;1.70;;;;;;;14.71;nan;100096.41;5085049;28;20624;-74
2022/05/23 01:00:47;;;;;;;7.07;2.22;;;;;;;14.58;nan;100090.53;5081632;28;20036;-74
2022/05/23 01:03:16;;;;;;;7.28;1.80;;;;;;;14.26;nan;100051.66;5078698;28;20032;-74
2022/05/23 01:05:42;;;;;;;6.22;2.00;;;;;;;14.40;nan;100083.00;5083055;28;20035;-75
2022/05/23 01:08:08;;;;;;;3.58;1.75;;;;;;;14.28;nan;100079.78;5079892;28;20119;-66
2022/05/23 01:10:36;;;;;;;5.40;1.70;;;;;;;14.25;nan;100084.53;5089076;28;20115;-66
2022/05/23 01:13:02;;;;;;;6.28;1.90;;;;;;;14.24;nan;100090.06;5079112;28;20036;-66
2022/05/23 01:15:30;;;;;;;4.00;1.75;;;;;;;14.07;nan;100073.56;5084645;28;20032;-67
2022/05/23 01:17:56;;;;;;;3.90;2.58;;;;;;;14.16;nan;100098.50;5082562;28;20493;-66
2022/05/23 01:20:23;;;;;;;7.07;2.75;;;;;;;14.09;nan;100092.63;5086342;28;20063;-66
2022/05/23 01:23:05;;;;;;;7.20;2.90;;;;;;;14.13;nan;100083.94;5089660;28;20039;-67
2022/05/23 01:25:44;;;;;;;5.75;2.88;;;;;;;14.19;nan;100090.84;5086896;28;20036;-66
2022/05/23 01:28:13;;;;;;;8.07;2.78;;;;;;;14.23;nan;100081.31;5087225;28;20052;-75
2022/05/23 01:30:40;;;;;;;10.70;2.50;;;;;;;14.30;nan;100093.56;5096054;28;20042;-76
2022/05/23 01:33:08;;;;;;;5.20;2.33;;;;;;;14.25;nan;100083.72;5085737;28;20043;-76
2022/05/23 01:35:33;;;;;;;5.63;2.55;;;;;;;14.14;nan;100074.13;5081053;28;20158;-76
2022/05/23 01:37:59;;;;;;;5.28;2.38;;;;;;;14.21;nan;100085.28;5082425;28;20024;-75
2022/05/23 01:40:25;;;;;;;4.82;2.30;;;;;;;14.14;nan;100074.91;5086587;28;20111;-76
2022/05/23 01:42:51;;;;;;;5.85;2.33;;;;;;;14.16;nan;100078.09;5094315;28;20035;-76
2022/05/23 01:45:20;;;;;;;5.47;2.20;;;;;;;14.19;nan;100092.69;5079986;28;20029;-77
2022/05/23 01:47:46;;;;;;;6.63;2.08;;;;;;;14.16;nan;100087.91;5074972;28;20067;-75
2022/05/23 01:50:11;;;;;;;4.43;2.35;;;;;;;14.05;nan;100071.16;5080643;28;20032;-75
2022/05/23 01:52:37;;;;;;;7.60;2.50;;;;;;;14.04;nan;100078.31;5076141;28;20029;-68
2022/05/23 01:55:03;;;;;;;5.57;2.45;;;;;;;14.09;nan;100085.47;5076557;28;20111;-69
2022/05/23 01:57:30;;;;;;;4.07;2.50;;;;;;;14.10;nan;100089.72;5081542;28;20036;-70
2022/05/23 02:02:39;;;;;;;8.98;2.65;;;;;;;13.86;nan;100093.78;5081207;28;20600;-68
2022/05/23 02:05:05;;;;;;;6.80;2.83;;;;;;;13.69;nan;100086.78;5073246;28;20044;-69
2022/05/23 02:07:30;;;;;;;5.35;2.83;;;;;;;13.63;nan;100090.47;5085182;28;20098;-67
2022/05/23 02:09:55;;;;;;;5.20;2.55;;;;;;;13.57;nan;100094.88;5092230;28;20047;-69
2022/05/23 02:12:21;;;;;;;3.95;2.53;;;;;;;13.53;nan;100100.97;5089918;28;20086;-68
2022/05/23 02:14:49;;;;;;;6.63;2.85;;;;;;;13.44;nan;100097.97;5080354;28;20032;-69
2022/05/23 02:17:15;;;;;;;6.88;2.85;;;;;;;13.37;nan;100098.16;5076447;28;20032;-68
2022/05/23 02:19:41;;;;;;;7.05;2.88;;;;;;;13.40;nan;100095.00;5081378;28;20043;-66
2022/05/23 02:22:06;;;;;;;5.95;3.00;;;;;;;13.28;nan;100094.38;5081904;28;20045;-68
2022/05/23 02:24:32;;;;;;;4.97;2.72;;;;;;;13.32;nan;100090.19;5091880;28;20032;-67
2022/05/23 02:26:58;;;;;;;7.13;2.90;;;;;;;13.32;nan;100094.69;5080964;28;20456;-68
2022/05/23 02:29:24;;;;;;;7.00;2.95;;;;;;;13.29;nan;100095.16;5095444;28;20039;-68
2022/05/23 02:31:49;;;;;;;4.57;2.90;;;;;;;13.18;nan;100094.25;5101118;28;20036;-68
2022/05/23 02:34:17;;;;;;;5.57;3.30;;;;;;;13.01;nan;100083.78;5083030;28;20080;-69
2022/05/23 02:36:43;;;;;;;6.63;3.10;;;;;;;13.03;nan;100091.47;5088417;28;20142;-68
2022/05/23 02:39:08;;;;;;;11.75;3.38;;;;;;;12.95;nan;100082.09;5079072;28;20057;-68
2022/05/23 02:41:34;;;;;;;10.10;2.90;;;;;;;12.85;nan;100087.28;5096195;28;20032;-76
2022/05/23 02:43:59;;;;;;;7.90;3.00;;;;;;;12.87;nan;100078.06;5083053;28;20139;-76
2022/05/23 02:46:25;;;;;;;9.38;2.90;;;;;;;12.92;nan;100090.53;5079330;28;20032;-76
2022/05/23 02:48:50;;;;;;;7.65;3.20;;;;;;;12.76;nan;100090.38;5081011;28;20039;-75
2022/05/23 02:51:16;;;;;;;4.30;2.88;;;;;;;12.59;nan;100065.06;5079945;28;20551;-75
2022/05/23 02:53:42;;;;;;;11.35;3.67;;;;;;;12.54;nan;100084.28;5082492;28;20044;-78
2022/05/23 02:56:07;;;;;;;7.40;3.20;;;;;;;12.53;nan;100087.97;5083881;28;20085;-75
2022/05/23 02:58:33;;;;;;;10.57;3.30;;;;;;;12.48;nan;100090.56;5092528;28;20531;-75
2022/05/23 03:00:58;;;;;;;5.65;3.15;;;;;;;12.40;nan;100091.75;5084206;28;20060;-76
2022/05/23 03:03:24;;;;;;;7.30;3.47;;;;;;;12.33;nan;100088.50;5096716;28;20040;-75
2022/05/23 03:05:53;;;;;;;14.35;4.97;;;;;;;12.14;nan;100064.25;5085996;28;20071;-76
2022/05/23 03:08:21;;;;;;;9.88;4.50;;;;;;;12.24;nan;100096.06;5078459;28;20028;-75
2022/05/23 03:10:49;;;;;;;10.93;4.60;;;;;;;12.17;nan;100089.34;5080801;28;20174;-76
2022/05/23 03:13:15;;;;;;;9.18;4.70;;;;;;;12.11;nan;100076.09;5086983;28;20474;-75
2022/05/23 03:15:40;;;;;;;7.97;4.05;;;;;;;12.22;nan;100079.66;5088853;28;20055;-75
2022/05/23 03:18:06;;;;;;;9.20;4.60;;;;;;;12.15;nan;100065.03;5093227;28;20149;-74
2022/05/23 03:20:32;;;;;;;6.82;3.97;;;;;;;12.24;nan;100069.66;5094048;28;20040;-74
2022/05/23 03:28:26;;;;;;;6.50;4.45;;;;;;;12.12;nan;100082.94;5084568;28;20048;-76
2022/05/23 03:30:51;;;;;;;9.07;4.80;;;;;;;12.22;nan;100092.84;5081008;28;20029;-77
2022/05/23 03:33:18;;;;;;;9.38;4.57;;;;;;;12.21;nan;100082.53;5088362;28;20043;-76
2022/05/23 03:35:44;;;;;;;11.00;4.55;;;;;;;12.23;nan;100078.59;5086253;28;20075;-76
2022/05/23 03:38:10;;;;;;;10.57;4.93;;;;;;;12.31;nan;100087.97;5075837;28;20082;-76
2022/05/23 03:40:38;;;;;;;8.10;4.47;;;;;;;12.36;nan;100089.88;5078531;28;20047;-75
2022/05/23 03:43:04;;;;;;;8.10;4.00;;;;;;;12.31;nan;100075.56;5074379;28;20032;-76
2022/05/23 03:45:31;;;;;;;10.55;4.55;;;;;;;12.44;nan;100095.50;5085945;28;20039;-74
2022/05/23 03:47:57;;;;;;;12.57;4.22;;;;;;;12.44;nan;100095.50;5079880;28;20028;-75
2022/05/23 03:50:26;;;;;;;10.27;3.97;;;;;;;12.50;nan;100096.41;5102416;28;20039;-75
2022/05/23 03:52:52;;;;;;;8.20;4.00;;;;;;;12.49;nan;100085.00;5082005;28;20479;-74
2022/05/23 03:55:19;;;;;;;8.77;4.07;;;;;;;12.48;nan;100082.63;5105628;28;20040;-73
2022/05/23 03:57:44;;;;;;;6.85;3.50;;;;;;;12.61;nan;100100.75;5092512;28;20036;-77
2022/05/23 04:00:14;;;;;;;8.23;3.00;;;;;;;12.54;nan;100092.19;5080601;28;20020;-74
2022/05/23 04:02:41;;;;;;;6.82;3.03;;;;;;;12.58;nan;100101.25;5080304;28;20046;-76
2022/05/23 04:05:09;;;;;;;6.30;2.88;;;;;;;12.50;nan;100102.47;5077543;28;20028;-76
2022/05/23 04:07:36;;;;;;;9.73;2.88;;;;;;;12.46;nan;100093.44;5079172;28;20045;-75
2022/05/23 04:10:04;;;;;;;6.93;2.92;;;;;;;12.56;nan;100109.41;5117895;28;20564;-75
2022/05/23 04:12:29;;;;;;;5.70;2.83;;;;;;;12.50;nan;100097.19;5115507;28;20028;-75
2022/05/23 04:14:55;;;;;;;7.13;2.60;;;;;;;12.55;nan;100113.09;5106895;28;20044;-76
2022/05/23 04:17:20;;;;;;;7.25;2.75;;;;;;;12.46;nan;100097.91;5105220;28;20039;-75
2022/05/23 04:19:48;;;;;;;7.05;2.33;;;;;;;12.57;nan;100107.59;5101145;28;20040;-75
2022/05/23 04:22:13;;;;;;;6.50;2.55;;;;;;;12.55;nan;100107.81;5109521;28;20183;-75
2022/05/23 04:24:39;;;;;;;4.25;2.85;;;;;;;12.64;nan;100115.31;5116273;28;20060;-66
2022/05/23 04:27:04;;;;;;;5.97;3.38;;;;;;;12.56;nan;100109.41;5105816;28;20045;-73
2022/05/23 04:29:30;;;;;;;12.93;4.93;;;;;;;12.72;nan;100110.41;5111402;28;20052;-74
2022/05/23 04:31:55;;;;;;;14.13;7.70;;;;;;;12.80;nan;100108.38;5122206;28;20103;-75
2022/05/23 04:37:24;;;;;;;6.95;3.10;;;;;;;12.97;nan;100111.72;5090761;28;20051;-74
2022/05/23 04:39:50;;;;;;;7.43;2.95;;;;;;;13.01;nan;100101.47;5094005;28;20056;-74
2022/05/23 04:42:15;;;;;;;3.58;2.60;;;;;;;13.07;nan;100092.53;5075756;28;20008;-75
2022/05/23 04:44:40;;;;;;;6.63;2.60;;;;;;;13.23;nan;100104.09;5093110;28;20099;-75
2022/05/23 04:49:50;;;;;;;5.53;2.33;;;;;;;13.41;nan;100093.19;5072126;28;20032;-74
2022/05/23 04:52:22;;;;;;;11.60;2.90;;;;;;;13.46;nan;100093.22;5065157;28;20415;-75
2022/05/23 04:54:49;;;;;;;10.07;2.55;;;;;;;13.62;nan;100104.72;5070290;28;20047;-75
2022/05/23 04:57:15;;;;;;;8.20;2.40;;;;;;;13.63;nan;100106.34;5070005;28;20032;-75
2022/05/23 04:59:41;;;;;;;23.42;2.50;;;;;;;13.82;nan;100114.69;5061294;28;20536;-75
2022/05/23 05:02:06;;;;;;;4.65;2.22;;;;;;;13.81;nan;100100.66;5069159;28;20147;-74
2022/05/23 05:04:33;;;;;;;4.63;2.10;;;;;;;13.86;nan;100105.16;5056065;28;20093;-75
2022/05/23 05:06:59;;;;;;;7.25;2.28;;;;;;;13.98;nan;100103.16;5077494;28;20032;-75
2022/05/23 05:09:24;;;;;;;6.88;1.90;;;;;;;13.92;nan;100095.44;5080209;28;20036;-76
2022/05/23 05:11:50;;;;;;;6.75;1.92;;;;;;;14.07;nan;100110.63;5084072;28;20406;-75
2022/05/23 05:14:15;;;;;;;4.43;1.90;;;;;;;14.12;nan;100106.16;5072912;28;20441;-74
2022/05/23 05:16:41;;;;;;;9.20;2.00;;;;;;;14.20;nan;100105.69;5089731;28;20036;-74
2022/05/23 05:19:06;;;;;;;8.88;2.10;;;;;;;14.19;nan;100101.41;5077129;28;20056;-74
2022/05/23 05:21:32;;;;;;;7.15;1.80;;;;;;;14.36;nan;100124.31;5081559;28;20036;-75
2022/05/23 05:23:57;;;;;;;7.20;2.40;;;;;;;14.18;nan;100076.00;5099289;28;20040;-70
2022/05/23 05:26:24;;;;;;;10.88;2.42;;;;;;;14.53;nan;100114.31;5079083;28;20027;-75
2022/05/23 05:28:51;;;;;;;10.65;2.15;;;;;;;14.52;nan;100110.09;5087939;28;20047;-75
2022/05/23 05:31:42;;;;;;;6.85;1.77;;;;;;;14.70;nan;100126.63;5089231;28;20149;-75
2022/05/23 05:34:13;;;;;;;13.50;1.92;;;;;;;14.70;nan;100122.13;5072421;28;20577;-74
2022/05/23 05:36:45;;;;;;;7.53;2.10;;;;;;;14.69;nan;100109.91;5080175;28;20393;-74
2022/05/23 05:39:14;;;;;;;13.00;2.15;;;;;;;14.82;nan;100106.81;5083996;28;20024;-75
2022/05/23 05:42:03;;;;;;;8.77;1.85;;;;;;;14.97;nan;100116.66;5075496;28;20028;-74
2022/05/23 05:44:33;;;;;;;8.55;1.90;;;;;;;14.99;nan;100113.72;5078704;28;20110;-74
2022/05/23 05:47:03;;;;;;;11.13;2.10;;;;;;;15.07;nan;100114.03;5074149;28;20127;-72
2022/05/23 05:49:35;;;;;;;7.07;1.95;;;;;;;15.02;nan;100094.66;5085463;28;20084;-73
2022/05/23 05:52:02;;;;;;;7.47;2.03;;;;;;;15.17;nan;100117.75;5077710;28;20029;-74
2022/05/23 05:54:30;;;;;;;10.60;2.00;;;;;;;15.24;nan;100118.31;5082702;28;20046;-73
2022/05/23 05:56:58;;;;;;;7.90;2.38;;;;;;;15.28;nan;100120.19;5084196;28;20129;-73
2022/05/23 05:59:24;;;;;;;13.20;2.22;;;;;;;15.33;nan;100116.72;5092275;28;20047;-69
2022/05/23 06:01:49;;;;;;;7.57;1.80;;;;;;;15.38;nan;100116.75;5085756;28;20020;-69
2022/05/23 06:04:15;;;;;;;4.68;1.80;;;;;;;15.36;nan;100110.91;5087651;28;20024;-69
2022/05/23 06:12:09;;;;;;;9.07;1.98;;;;;;;15.76;nan;100130.59;5085625;28;20032;-68
2022/05/23 06:14:35;;;;;;;7.35;1.48;;;;;;;15.68;nan;100099.22;5089550;28;20366;-68
2022/05/23 06:17:00;;;;;;;7.80;1.80;;;;;;;15.90;nan;100126.34;5093759;28;20028;-69
2022/05/23 06:19:26;;;;;;;4.88;1.92;;;;;;;15.86;nan;100097.94;5088058;28;20040;-69
2022/05/23 06:21:52;;;;;;;8.27;1.83;;;;;;;16.10;nan;100125.53;5086625;28;20032;-68
2022/05/23 06:24:17;;;;;;;11.73;1.73;;;;;;;16.13;nan;100119.66;5082569;28;20040;-68
2022/05/23 06:26:44;;;;;;;10.68;2.38;;;;;;;16.24;nan;100123.09;5091980;28;20040;-68
2022/05/23 06:29:09;;;;;;;9.90;2.40;;;;;;;16.22;nan;100114.59;5089552;28;20036;-69
2022/05/23 06:31:35;;;;;;;6.10;1.98;;;;;;;16.40;nan;100131.84;5084116;28;20043;-68
2022/05/23 06:34:00;;;;;;;5.75;1.85;;;;;;;16.52;nan;100128.88;5083957;28;20067;-69
2022/05/23 06:36:26;;;;;;;8.27;1.73;;;;;;;16.60;nan;100125.66;5086189;28;20297;-69
2022/05/23 06:38:51;;;;;;;11.25;1.90;;;;;;;16.70;nan;100122.16;5072892;28;20528;-73
2022/05/23 06:41:16;;;;;;;9.90;1.80;;;;;;;16.77;nan;100128.00;5100214;28;20040;-73
2022/05/23 06:43:43;;;;;;;8.48;2.00;;;;;;;16.94;nan;100139.09;5085106;28;20039;-74
2022/05/23 06:46:11;;;;;;;4.30;1.80;;;;;;;17.03;nan;100139.34;5094511;28;20034;-73
2022/05/23 06:48:37;;;;;;;3.28;1.63;;;;;;;17.16;nan;100148.56;5091013;28;20078;-74
2022/05/23 06:51:04;;;;;;;6.45;2.03;;;;;;;17.23;nan;100136.56;5085964;28;20033;-74
2022/05/23 06:53:30;;;;;;;3.10;1.48;;;;;;;17.28;nan;100135.72;5091856;28;20052;-71
2022/05/23 06:55:56;;;;;;;10.10;1.80;;;;;;;17.43;nan;100140.19;5080739;28;20123;-72
2022/05/23 06:58:22;;;;;;;6.15;1.58;;;;;;;17.43;nan;100130.31;5091882;28;20028;-71
2022/05/23 07:00:48;;;;;;;6.28;1.55;;;;;;;17.55;nan;100134.47;5082753;28;20044;-73
2022/05/23 07:03:14;;;;;;;10.95;1.42;;;;;;;17.55;nan;100122.00;5100236;27;20460;-73
2022/05/23 07:13:54;;;;;;;4.47;1.08;;;;;;;18.09;nan;100136.19;5089186;28;20028;-74
2022/05/23 07:16:19;;;;;;;7.10;0.95;;;;;;;18.10;nan;100129.00;5088077;28;20435;-72
2022/05/23 07:18:46;;;;;;;10.23;1.33;;;;;;;18.22;nan;100142.72;5091509;28;20082;-73
2022/05/23 07:21:11;;;;;;;6.93;2.08;;;;;;;18.28;nan;100141.63;5091499;27;20693;-73
2022/05/23 07:23:37;;;;;;;5.90;1.02;;;;;;;18.35;nan;100143.94;5085994;28;20050;-73
2022/05/23 07:26:05;;;;;;;2.55;1.15;;;;;;;18.45;nan;100138.50;5080437;28;20028;-68
2022/05/23 07:28:31;;;;;;;9.23;1.30;;;;;;;18.63;nan;100147.66;5082408;28;20072;-73
2022/05/23 07:30:57;;;;;;;5.72;1.30;;;;;;;18.71;nan;100149.66;5104328;28;20036;-74
2022/05/23 07:33:23;;;;;;;8.13;1.20;;;;;;;18.69;nan;100141.94;5095587;28;20030;-74
2022/05/23 07:36:00;;;;;;;3.75;1.25;;;;;;;18.78;nan;100152.81;5091607;28;20043;-73
2022/05/23 07:38:28;;;;;;;7.25;1.15;;;;;;;18.82;nan;100151.19;5075352;28;20064;-73
2022/05/23 07:40:54;;;;;;;3.75;1.25;;;;;;;18.85;nan;100139.13;5081590;28;20036;-72
2022/05/23 07:43:21;;;;;;;5.22;1.30;;;;;;;18.96;nan;100151.25;5093102;28;20521;-74
2022/05/23 07:45:49;;;;;;;1.48;1.10;;;;;;;19.01;nan;100147.72;5083426;28;20089;-72
2022/05/23 07:48:16;;;;;;;3.00;0.90;;;;;;;19.18;nan;100150.72;5084285;28;20118;-73
2022/05/23 07:50:43;;;;;;;3.88;0.70;;;;;;;19.11;nan;100139.59;5085386;28;20028;-69
2022/05/23 08:01:22;;;;;;;3.45;0.90;;;;;;;19.52;nan;100145.13;5079748;28;20032;-74
2022/05/23 08:03:48;;;;;;;1.88;0.90;;;;;;;19.53;nan;100135.22;5084293;28;20490;-74
2022/05/23 08:06:14;;;;;;;2.58;1.10;;;;;;;19.65;nan;100138.25;5092233;28;20040;-73
2022/05/23 08:08:40;;;;;;;2.67;0.90;;;;;;;19.70;nan;100129.38;5094435;28;20040;-74
2022/05/23 08:11:08;;;;;;;0.98;0.73;;;;;;;19.58;nan;100100.44;5087527;28;20034;-72
2022/05/23 08:13:36;;;;;;;1.70;1.13;;;;;;;19.86;nan;100132.59;5090181;28;20556;-74
2022/05/23 08:16:01;;;;;;;3.63;0.80;;;;;;;19.98;nan;100130.25;5089341;28;20545;-73
2022/05/23 08:18:27;;;;;;;3.58;0.90;;;;;;;20.14;nan;100133.47;5105563;28;20498;-73
2022/05/23 08:20:52;;;;;;;3.42;0.98;;;;;;;20.17;nan;100127.50;5091024;28;20059;-73
2022/05/23 08:23:18;;;;;;;3.30;1.00;;;;;;;20.21;nan;100130.38;5092580;28;20081;-73
2022/05/23 08:25:44;;;;;;;1.05;0.90;;;;;;;20.25;nan;100136.72;5088302;28;20051;-72
2022/05/23 08:28:09;;;;;;;4.75;1.05;;;;;;;20.26;nan;100136.44;5091001;28;20123;-74
2022/05/23 08:30:35;;;;;;;2.03;1.00;;;;;;;20.37;nan;100137.81;5094385;28;20032;-74
2022/05/23 08:33:00;;;;;;;4.78;1.00;;;;;;;20.35;nan;100134.66;5090780;28;20489;-74
2022/05/23 08:35:27;;;;;;;7.70;0.90;;;;;;;20.39;nan;100122.28;5088135;28;20041;-74
2022/05/23 08:37:54;;;;;;;3.10;0.90;;;;;;;20.43;nan;100119.03;5092533;28;20080;-74
2022/05/23 08:40:25;;;;;;;1.92;0.93;;;;;;;20.44;nan;100129.41;5096230;28;20100;-74
2022/05/23 08:42:58;;;;;;;6.72;0.90;;;;;;;20.45;nan;100116.81;5100868;28;20036;-73
2022/05/23 08:45:37;;;;;;;3.50;1.00;;;;;;;20.49;nan;100121.28;5100312;28;20036;-74
2022/05/23 08:48:02;;;;;;;3.05;0.88;;;;;;;20.55;nan;100114.78;5108116;28;20028;-73
2022/05/23 08:50:46;;;;;;;4.75;0.85;;;;;;;20.55;nan;100103.25;5125139;28;20141;-73
2022/05/23 08:53:18;;;;;;;2.10;0.90;;;;;;;20.64;nan;100114.88;5102496;28;20032;-72
2022/05/23 08:55:48;;;;;;;4.65;1.40;;;;;;;20.72;nan;100111.50;5113150;28;20053;-74
2022/05/23 08:58:41;;;;;;;4.45;1.20;;;;;;;20.69;nan;100097.94;5110018;28;20040;-73
2022/05/23 09:01:13;;;;;;;4.05;1.10;;;;;;;20.74;nan;100095.16;5106349;28;20060;-73
2022/05/23 09:03:46;;;;;;;2.65;0.90;;;;;;;20.84;nan;100097.59;5110131;28;20053;-72
2022/05/23 09:06:18;;;;;;;4.35;1.00;;;;;;;20.89;nan;100096.69;5104814;28;20032;-74
2022/05/23 09:08:57;;;;;;;1.52;0.95;;;;;;;20.88;nan;100103.94;5107316;28;20036;-73
2022/05/23 09:11:37;;;;;;;1.75;1.00;;;;;;;20.94;nan;100089.34;5109051;28;20028;-72
2022/05/23 09:14:07;;;;;;;5.13;1.10;;;;;;;21.01;nan;100089.72;5097647;28;20035;-71
2022/05/23 09:16:40;;;;;;;7.60;1.33;;;;;;;21.04;nan;100081.06;5087159;28;20032;-71
2022/05/23 09:19:16;;;;;;;4.55;1.17;;;;;;;21.01;nan;100076.31;5092269;28;20040;-73
2022/05/23 09:24:52;;;;;;;2.53;0.90;;;;;;;21.18;nan;100080.25;5086807;28;20040;-72
2022/05/23 09:27:25;;;;;;;3.35;1.00;;;;;;;21.32;nan;100086.34;5090622;28;20047;-73
2022/05/23 09:29:53;;;;;;;3.35;1.23;;;;;;;21.30;nan;100085.06;5087455;28;20123;-68
2022/05/23 09:32:26;;;;;;;1.73;1.00;;;;;;;21.30;nan;100085.06;5077957;28;20039;-67
2022/05/23 09:34:58;;;;;;;4.75;0.98;;;;;;;21.29;nan;100083.50;5083378;28;20040;-67
2022/05/23 09:37:38;;;;;;;1.65;0.80;;;;;;;21.18;nan;100077.56;5077559;28;20123;-65
2022/05/23 09:40:05;;;;;;;1.95;1.00;;;;;;;21.23;nan;100075.53;5080845;28;20037;-66
2022/05/23 09:48:15;;;;;;;3.33;1.45;;;;;;;21.29;nan;100081.59;5076240;28;20119;-68
2022/05/23 09:50:44;;;;;;;2.08;1.30;;;;;;;21.30;nan;100083.16;5084297;28;20504;-67
2022/05/23 09:53:45;;;;;;;;;;;;;;;21.32;nan;100094.38;5085759;28;20036;-70
2022/05/23 09:56:35;;;;;;;6.75;0.80;;;;;;;21.36;nan;100081.19;5044972;28;20631;-67
2022/05/23 09:59:06;;;;;;;8.57;0.90;;;;;;;21.39;nan;100076.00;5044725;28;20025;-67
2022/05/23 10:01:33;;;;;;;1.50;0.80;;;;;;;21.51;nan;100088.06;5027968;28;20055;-67
2022/05/23 10:04:00;;;;;;;3.25;0.98;;;;;;;21.45;nan;100084.72;5029892;28;20499;-67
2022/05/23 10:06:42;;;;;;;4.68;1.02;;;;;;;21.49;nan;100080.34;5046951;28;20029;-72
2022/05/23 10:09:40;;;;;;;1.98;0.70;;;;;;;21.58;nan;100077.72;5045867;28;20052;-74
2022/05/23 10:12:08;;;;;;;2.20;1.05;;;;;;;21.60;nan;100064.81;5045937;28;20056;-73
2022/05/23 10:14:44;;;;;;;4.63;1.10;;;;;;;21.71;nan;100066.09;5046200;28;20041;-73
2022/05/23 10:17:25;;;;;;;1.27;0.63;;;;;;;21.69;nan;100067.50;5047759;28;20029;-73
2022/05/23 10:19:51;;;;;;;1.10;0.70;;;;;;;21.71;nan;100071.47;5046039;28;20033;-72
2022/05/23 10:22:20;;;;;;;1.88;0.82;;;;;;;21.72;nan;100073.06;5047707;28;20078;-72
2022/05/23 10:25:04;;;;;;;1.05;0.70;;;;;;;21.69;nan;100070.19;5048649;28;20079;-72
2022/05/23 10:27:40;;;;;;;1.50;0.80;;;;;;;21.64;nan;100068.44;5047036;28;20490;-67
2022/05/23 10:30:08;;;;;;;2.75;0.70;;;;;;;21.66;nan;100064.34;5064240;28;20047;-72
2022/05/23 10:32:48;;;;;;;3.07;0.80;;;;;;;21.71;nan;100065.31;5101775;28;20056;-73
2022/05/23 10:35:52;;;;;;;3.00;0.88;;;;;;;21.78;nan;100061.09;5078603;28;20837;-72
2022/05/23 10:44:31;;;;;;;4.50;0.75;;;;;;;22.04;nan;100063.91;5047064;28;20029;-74
2022/05/23 10:47:23;;;;;;;3.67;0.90;;;;;;;22.04;nan;100049.72;5026741;28;20033;-74
2022/05/23 10:49:48;;;;;;;3.25;0.70;;;;;;;22.05;nan;100059.31;5030904;28;20025;-67
2022/05/23 10:52:29;;;;;;;2.25;0.70;;;;;;;22.08;nan;100069.44;5034318;28;20045;-73
2022/05/23 10:55:14;;;;;;;2.80;0.65;;;;;;;22.10;nan;100067.25;5042739;28;20563;-71
2022/05/23 10:58:08;;;;;;;1.50;0.80;;;;;;;22.06;nan;100066.28;5019814;28;20080;-71
2022/05/23 11:00:49;;;;;;;2.42;0.57;;;;;;;22.13;nan;100069.31;5047232;28;20041;-73
2022/05/23 11:03:22;;;;;;;2.80;0.60;;;;;;;22.11;nan;100063.47;5030650;28;20033;-72
2022/05/23 11:06:12;;;;;;;2.42;0.70;;;;;;;22.17;nan;100058.72;5049866;28;20087;-71
2022/05/23 11:09:16;;;;;;;1.38;0.70;;;;;;;22.27;nan;100059.28;5043692;28;20041;-72
2022/05/23 11:11:57;;;;;;;3.67;0.73;;;;;;;22.26;nan;100051.53;5033750;28;20136;-72
2022/05/23 11:14:58;;;;;;;3.40;0.93;;;;;;;22.27;nan;100047.78;5033219;28;20045;-73
2022/05/23 11:17:32;;;;;;;2.47;1.05;;;;;;;22.37;nan;100049.38;5003555;28;20133;-65
2022/05/23 11:20:32;;;;;;;2.72;1.02;;;;;;;22.36;nan;100048.56;5049617;28;20025;-74
2022/05/23 11:23:10;;;;;;;1.13;0.77;;;;;;;22.39;nan;100049.84;5033119;28;20025;-72
2022/05/23 11:25:39;;;;;;;1.30;0.82;;;;;;;22.40;nan;100043.38;5047946;28;20176;-73
2022/05/23 11:34:13;;;;;;;1.95;0.90;;;;;;;22.56;nan;100049.09;5049884;28;20045;-72
2022/05/23 11:39:51;;;;;;;2.33;0.85;;;;;;;22.59;nan;100045.78;5031253;28;20489;-72
2022/05/23 11:42:40;;;;;;;2.47;0.90;;;;;;;22.63;nan;100047.50;5046164;28;20068;-73
2022/05/23 11:45:56;;;;;;;1.48;0.90;;;;;;;22.70;nan;100047.84;5044167;28;20048;-73
2022/05/23 11:47:52;;;;;;;4.20;1.58;;;;;;;22.64;nan;100045.63;5042963;28;20041;-73
2022/05/23 11:50:34;;;;;;;1.13;0.77;;;;;;;22.56;nan;100035.69;5055611;28;20540;-73
2022/05/23 11:53:30;;;;;;;5.35;1.08;;;;;;;22.67;nan;100045.78;5089538;28;20046;-73
2022/05/23 11:55:55;;;;;;;2.00;0.80;;;;;;;22.71;nan;100049.41;5083425;28;20040;-72
2022/05/23 11:58:42;;;;;;;1.77;0.90;;;;;;;22.64;nan;100042.94;5083285;28;20394;-73
2022/05/23 12:01:09;;;;;;;1.45;0.90;;;;;;;22.67;nan;100037.75;5095002;28;20028;-73
2022/05/23 12:03:47;;;;;;;4.00;1.02;;;;;;;22.65;nan;100042.63;5085463;28;20051;-73
2022/05/23 12:06:23;;;;;;;1.70;0.75;;;;;;;22.66;nan;100046.09;5088200;28;20528;-67
2022/05/23 12:08:58;;;;;;;5.47;0.90;;;;;;;22.71;nan;100045.94;5091954;28;20080;-67
2022/05/23 12:11:26;;;;;;;2.40;0.88;;;;;;;22.61;nan;100030.16;5086409;28;21548;-68
2022/05/23 12:13:58;;;;;;;0.90;0.70;;;;;;;22.69;nan;100030.13;5093014;28;20028;-73
2022/05/23 12:16:29;;;;;;;3.60;0.90;;;;;;;22.70;nan;100020.22;5087657;28;20059;-73
2022/05/23 12:19:13;;;;;;;7.03;1.00;;;;;;;22.68;nan;100014.38;5101302;28;20043;-67
2022/05/23 12:21:45;;;;;;;1.75;0.70;;;;;;;22.63;nan;100026.03;5078164;28;20040;-67
2022/05/23 12:24:10;;;;;;;5.55;1.25;;;;;;;22.62;nan;100018.28;5083956;28;20428;-72
2022/05/23 12:26:36;;;;;;;4.45;0.80;;;;;;;22.59;nan;100010.88;5089521;28;20036;-72
2022/05/23 12:29:25;;;;;;;5.20;0.93;;;;;;;22.66;nan;100006.63;5089525;28;20439;-72
2022/05/23 12:32:24;;;;;;;0.90;0.70;;;;;;;22.81;nan;100015.31;5089501;28;20100;-72
2022/05/23 12:34:52;;;;;;;3.90;0.80;;;;;;;22.81;nan;100009.94;5074172;28;20036;-72
2022/05/23 12:37:36;;;;;;;2.13;0.98;;;;;;;22.84;nan;100020.03;5100732;28;20396;-72
2022/05/23 12:40:11;;;;;;;1.45;0.70;;;;;;;22.84;nan;100015.47;5086429;28;20028;-72
2022/05/23 12:43:12;;;;;;;2.78;0.93;;;;;;;22.94;nan;100015.16;5087363;28;20040;-73
2022/05/23 12:45:57;;;;;;;6.60;0.85;;;;;;;22.92;nan;100014.69;5084832;28;20036;-73
2022/05/23 12:48:46;;;;;;;1.98;1.00;;;;;;;22.82;nan;100000.75;5094899;28;20032;-67
2022/05/23 12:54:39;;;;;;;2.95;1.00;;;;;;;22.85;nan;100010.91;5078579;28;20127;-67
2022/05/23 12:57:24;;;;;;;4.03;0.95;;;;;;;22.86;nan;99999.03;5087857;28;20043;-68
2022/05/23 12:59:54;;;;;;;5.45;1.13;;;;;;;22.68;nan;99991.00;5083019;28;20047;-70
2022/05/23 13:02:26;;;;;;;1.40;0.95;;;;;;;22.84;nan;100004.75;5083177;28;20093;-70
2022/05/23 13:04:56;;;;;;;5.97;0.98;;;;;;;22.92;nan;100011.19;5090303;28;20398;-69